Time;durP1;ratioP1;P1;durP2;ratioP2;P2;SDS_P1;SDS_P2;PMS_P1;PMS_P2;Temp;Humidity;BMP_temperature;BMP_pressure;BME280_temperature;BME280_humidity;BME280_pressure;Samples;Min_cycle;Max_cycle;Signal;HPM_P1;HPM_P2
2022/12/26 00:00:19;;;;;;;19.87;8.35;;;;;;;12.89;57.77;99153.59;4318033;33;20088;-89
2022/12/26 00:02:44;;;;;;;17.50;7.78;;;;;;;13.01;57.52;99157.31;4318282;33;20109;-89
2022/12/26 00:05:10;;;;;;;21.37;7.82;;;;;;;13.03;57.38;99152.78;4319376;33;20433;-90
2022/12/26 00:07:35;;;;;;;17.90;7.72;;;;;;;12.94;57.63;99157.66;4320820;33;20104;-89
2022/12/26 00:10:00;;;;;;;20.37;7.65;;;;;;;12.94;57.57;99152.38;4321166;33;20115;-90
2022/12/26 00:12:26;;;;;;;18.67;7.78;;;;;;;12.99;57.48;99154.75;4307933;33;20143;-90
2022/12/26 00:14:51;;;;;;;18.48;7.70;;;;;;;12.99;57.39;99150.28;4321377;33;20114;-89
2022/12/26 00:17:17;;;;;;;16.52;7.22;;;;;;;12.86;57.62;99156.41;4321065;33;20092;-89
2022/12/26 00:19:42;;;;;;;20.33;7.80;;;;;;;12.84;57.64;99158.28;4321336;33;20096;-90
2022/12/26 00:22:07;;;;;;;17.85;7.53;;;;;;;12.86;57.64;99162.53;4319980;33;20105;-89
2022/12/26 00:24:33;;;;;;;18.55;7.93;;;;;;;12.90;57.49;99164.09;4319935;33;20131;-90
2022/12/26 00:26:58;;;;;;;17.83;7.53;;;;;;;12.91;57.46;99157.00;4321178;33;20247;-89
2022/12/26 00:29:24;;;;;;;16.73;7.53;;;;;;;12.88;57.48;99146.59;4321239;33;20113;-89
2022/12/26 00:31:49;;;;;;;17.85;7.82;;;;;;;12.85;57.51;99149.41;4321038;33;20092;-90
2022/12/26 00:34:15;;;;;;;17.95;8.20;;;;;;;12.82;57.63;99137.22;4321096;33;20093;-90
2022/12/26 00:36:40;;;;;;;20.05;8.32;;;;;;;12.81;57.74;99140.81;4307550;33;20096;-90
2022/12/26 00:39:06;;;;;;;19.40;9.60;;;;;;;12.77;57.77;99140.13;4320957;33;20080;-90
2022/12/26 00:41:31;;;;;;;20.75;9.35;;;;;;;12.78;57.68;99147.09;4321255;33;20168;-89
2022/12/26 00:43:57;;;;;;;18.75;8.77;;;;;;;12.76;57.55;99142.88;4319858;33;20430;-89
2022/12/26 00:46:23;;;;;;;18.42;8.75;;;;;;;12.59;57.83;99141.19;4321152;33;20430;-90
2022/12/26 00:48:48;;;;;;;23.65;10.18;;;;;;;12.59;57.97;99152.63;4321154;33;20445;-89
2022/12/26 00:51:14;;;;;;;21.08;9.80;;;;;;;12.57;58.06;99153.63;4321061;33;20146;-89
2022/12/26 00:53:40;;;;;;;22.85;9.18;;;;;;;12.50;58.20;99158.44;4321461;33;20107;-89
2022/12/26 00:56:06;;;;;;;17.85;9.25;;;;;;;12.49;58.16;99158.50;4321177;33;20114;-89
2022/12/26 00:58:31;;;;;;;21.00;9.00;;;;;;;12.47;58.14;99161.22;4320108;33;20100;-89
2022/12/26 01:01:18;;;;;;;20.83;9.15;;;;;;;12.46;58.22;99170.13;4321330;33;20096;-89
2022/12/26 01:03:45;;;;;;;20.00;9.65;;;;;;;12.45;58.29;99157.81;4307550;33;20208;-89
2022/12/26 01:06:11;;;;;;;21.93;10.20;;;;;;;12.41;58.41;99151.00;4319937;33;20165;-90
2022/12/26 01:08:37;;;;;;;21.67;9.52;;;;;;;12.45;58.55;99149.06;4319801;33;20110;-89
2022/12/26 01:11:04;;;;;;;19.75;8.93;;;;;;;12.35;58.86;99146.09;4320736;33;20100;-90
2022/12/26 01:13:29;;;;;;;19.75;10.10;;;;;;;12.37;58.62;99136.28;4319921;33;20216;-89
2022/12/26 01:15:55;;;;;;;23.33;10.85;;;;;;;12.36;58.50;99138.06;4320812;33;20091;-89
2022/12/26 01:18:20;;;;;;;22.48;10.60;;;;;;;12.34;58.54;99133.78;4319230;33;20092;-89
2022/12/26 01:20:47;;;;;;;24.80;10.55;;;;;;;12.37;58.55;99138.91;4320882;33;20100;-90
2022/12/26 01:23:12;;;;;;;19.70;9.68;;;;;;;12.37;58.61;99146.84;4320931;33;20456;-90
2022/12/26 01:25:38;;;;;;;24.33;10.73;;;;;;;12.33;58.67;99148.81;4320861;33;20167;-90
2022/12/26 01:28:03;;;;;;;21.90;10.55;;;;;;;12.31;58.54;99145.41;4319889;33;20380;-89
2022/12/26 01:30:29;;;;;;;20.52;10.77;;;;;;;12.28;58.91;99142.91;4320903;33;20089;-90
2022/12/26 01:32:55;;;;;;;20.70;10.45;;;;;;;12.31;58.74;99136.62;4320765;33;20088;-90
2022/12/26 01:35:20;;;;;;;20.80;10.77;;;;;;;12.26;58.85;99121.00;4319687;33;20417;-89
2022/12/26 01:37:45;;;;;;;22.58;10.85;;;;;;;12.27;58.71;99124.53;4307362;33;20406;-89
2022/12/26 01:40:12;;;;;;;25.08;11.77;;;;;;;12.20;58.91;99130.13;4320634;33;20162;-89
2022/12/26 01:42:38;;;;;;;23.10;11.55;;;;;;;12.14;59.03;99133.13;4295510;33;20151;-89
2022/12/26 01:45:25;;;;;;;23.85;11.25;;;;;;;12.22;58.87;99127.41;4307344;33;20096;-90
2022/12/26 01:48:11;;;;;;;23.92;11.40;;;;;;;12.20;58.86;99132.78;4320775;33;20088;-89
2022/12/26 01:50:46;;;;;;;24.95;10.90;;;;;;;12.16;58.99;99123.31;4307572;33;20100;-89
2022/12/26 01:53:13;;;;;;;24.83;11.70;;;;;;;12.16;58.96;99117.19;4320677;33;20080;-89
2022/12/26 01:55:39;;;;;;;24.42;11.80;;;;;;;12.12;59.10;99118.31;4319354;33;20157;-89
2022/12/26 01:58:13;;;;;;;23.83;12.00;;;;;;;12.13;58.97;99110.31;4319389;33;20084;-89
2022/12/26 02:00:38;;;;;;;23.75;12.65;;;;;;;12.19;58.78;99114.41;4319463;33;20167;-89
2022/12/26 02:05:50;;;;;;;25.10;11.50;;;;;;;12.07;59.13;99115.06;4319643;33;20110;-89
2022/12/26 02:08:19;;;;;;;23.38;11.95;;;;;;;12.04;59.34;99115.25;4319130;33;20080;-90
2022/12/26 02:10:52;;;;;;;25.73;12.25;;;;;;;12.05;59.26;99111.66;4320219;33;20179;-89
2022/12/26 02:13:17;;;;;;;26.05;12.37;;;;;;;11.98;59.38;99111.16;4319290;33;20112;-89
2022/12/26 02:15:44;;;;;;;25.08;12.37;;;;;;;11.94;59.45;99101.72;4320338;33;20123;-89
2022/12/26 02:18:09;;;;;;;28.83;13.57;;;;;;;11.91;59.49;99107.97;4320459;33;20096;-89
2022/12/26 02:20:45;;;;;;;27.35;12.55;;;;;;;11.81;59.61;99112.03;4319279;33;20403;-89
2022/12/26 02:23:22;;;;;;;26.17;11.95;;;;;;;11.81;59.56;99112.88;4319333;33;20139;-89
2022/12/26 02:26:32;;;;;;;22.02;11.85;;;;;;;11.82;59.57;99121.69;4319228;33;20071;-89
2022/12/26 02:29:07;;;;;;;24.90;12.35;;;;;;;11.83;59.48;99107.53;4320159;33;20076;-89
2022/12/26 02:31:41;;;;;;;25.42;12.80;;;;;;;11.77;59.51;99106.06;4319673;33;20088;-89
2022/12/26 02:34:14;;;;;;;26.92;13.65;;;;;;;11.72;59.63;99105.47;4307179;33;20100;-89
2022/12/26 02:37:02;;;;;;;25.55;13.20;;;;;;;11.74;59.60;99105.38;4319263;33;20088;-90
2022/12/26 02:40:08;;;;;;;26.60;12.45;;;;;;;11.73;59.58;99093.97;4319211;33;20496;-89
2022/12/26 02:42:58;;;;;;;27.92;12.88;;;;;;;11.69;59.62;99105.66;4319251;33;20104;-89
2022/12/26 02:48:46;;;;;;;27.37;13.90;;;;;;;11.52;60.00;99066.97;4319255;33;20151;-89
2022/12/26 03:15:00;;;;;;;25.20;12.65;;;;;;;11.31;61.43;99078.66;4264461;33;20115;-90
2022/12/26 03:18:02;;;;;;;27.87;13.68;;;;;;;11.28;61.49;99074.41;4288805;33;20153;-89
2022/12/26 03:20:32;;;;;;;26.37;12.98;;;;;;;11.29;61.42;99072.63;4276921;33;20183;-89
2022/12/26 03:23:06;;;;;;;27.83;13.23;;;;;;;11.28;61.40;99077.06;4277089;33;20113;-89
2022/12/26 03:28:18;;;;;;;28.55;14.90;;;;;;;11.26;61.42;99078.03;4274471;33;20209;-89
2022/12/26 03:30:49;;;;;;;27.20;13.88;;;;;;;11.24;61.47;99079.91;4274400;33;20410;-89
2022/12/26 03:36:04;;;;;;;29.30;14.52;;;;;;;11.23;61.39;99075.59;4288388;33;20160;-89
2022/12/26 03:38:50;;;;;;;28.35;14.60;;;;;;;11.27;61.23;99077.13;4276605;33;20164;-90
2022/12/26 04:46:52;;;;;;;35.72;17.12;;;;;;;10.87;61.68;99103.75;4313833;33;20200;-89
2022/12/26 04:52:05;;;;;;;35.60;17.40;;;;;;;10.94;61.27;99091.12;4320044;33;20113;-89
2022/12/26 04:54:31;;;;;;;32.90;16.37;;;;;;;10.91;61.47;99083.38;4319270;33;20117;-89
2022/12/26 04:56:56;;;;;;;38.05;18.02;;;;;;;11.00;61.20;99090.81;4320930;33;20096;-89
2022/12/26 04:59:22;;;;;;;36.28;17.60;;;;;;;11.02;61.01;99078.41;4307617;33;20100;-89
2022/12/26 05:10:19;;;;;;;34.88;17.02;;;;;;;10.96;61.06;99090.12;4320016;33;20122;-89
2022/12/26 05:12:44;;;;;;;34.13;15.82;;;;;;;10.96;60.80;99086.63;4319654;33;20114;-89
2022/12/26 05:15:10;;;;;;;35.75;16.83;;;;;;;10.97;60.70;99090.97;4320856;33;20426;-90
2022/12/26 05:28:41;;;;;;;32.97;16.85;;;;;;;10.95;60.46;99075.25;4320786;33;20169;-89
2022/12/26 05:31:12;;;;;;;35.30;16.92;;;;;;;10.94;60.43;99081.44;4319941;33;20211;-89
2022/12/26 05:36:24;;;;;;;34.03;15.73;;;;;;;10.81;60.32;99068.03;4320733;33;20163;-89
2022/12/26 05:38:50;;;;;;;35.55;17.33;;;;;;;10.78;60.37;99065.56;4319530;33;20112;-88
2022/12/26 05:41:16;;;;;;;37.03;17.12;;;;;;;10.79;60.48;99069.03;4320702;33;20087;-89
2022/12/26 05:43:41;;;;;;;33.13;17.05;;;;;;;10.78;60.68;99065.56;4320788;33;20158;-88
2022/12/26 05:46:07;;;;;;;36.20;16.77;;;;;;;10.77;60.88;99074.38;4320516;33;20373;-88
2022/12/26 05:48:32;;;;;;;37.15;17.58;;;;;;;10.78;60.78;99070.84;4319471;33;20120;-89
2022/12/26 05:50:59;;;;;;;31.52;15.38;;;;;;;10.76;60.64;99071.84;4320538;33;20084;-89
2022/12/26 05:53:25;;;;;;;38.42;18.62;;;;;;;10.72;60.60;99071.16;4319460;33;20117;-88
2022/12/26 05:55:50;;;;;;;36.42;18.15;;;;;;;10.66;60.80;99071.44;4319348;33;20084;-88
2022/12/26 05:58:15;;;;;;;35.30;17.58;;;;;;;10.66;60.80;99070.59;4319295;33;20097;-88
2022/12/26 06:00:41;;;;;;;34.10;17.23;;;;;;;10.56;60.77;99060.50;4320453;33;20194;-88
2022/12/26 06:03:06;;;;;;;39.95;18.00;;;;;;;10.58;60.82;99073.59;4320615;33;20118;-88
2022/12/26 06:05:32;;;;;;;37.20;17.87;;;;;;;10.56;60.80;99078.94;4320193;33;20088;-88
2022/12/26 06:07:57;;;;;;;38.00;18.40;;;;;;;10.58;60.71;99074.44;4320364;33;20089;-88
2022/12/26 06:10:25;;;;;;;35.72;17.58;;;;;;;10.54;60.65;99066.78;4319340;33;20096;-89
2022/12/26 06:12:50;;;;;;;38.45;16.80;;;;;;;10.54;60.71;99066.78;4319226;33;20441;-89
2022/12/26 06:15:16;;;;;;;35.67;16.92;;;;;;;10.51;60.87;99069.59;4307101;33;20148;-88
2022/12/26 06:17:41;;;;;;;35.78;17.20;;;;;;;10.50;61.05;99055.53;4320234;33;20500;-88
2022/12/26 06:20:07;;;;;;;34.72;16.42;;;;;;;10.51;61.47;99064.31;4319284;33;20453;-88
2022/12/26 06:22:32;;;;;;;34.95;17.02;;;;;;;10.52;61.61;99050.22;4320724;33;20370;-88
2022/12/26 06:24:58;;;;;;;39.65;19.33;;;;;;;10.55;62.00;99055.34;4319439;33;20160;-88
2022/12/26 06:27:23;;;;;;;35.88;17.98;;;;;;;10.53;62.13;99057.19;4320572;33;20088;-88
2022/12/26 06:29:49;;;;;;;41.10;18.00;;;;;;;10.59;62.18;99048.97;4320644;33;20085;-89
2022/12/26 06:32:14;;;;;;;37.20;18.67;;;;;;;10.68;61.96;99059.06;4320681;33;20434;-88
2022/12/26 06:34:39;;;;;;;37.53;19.62;;;;;;;10.66;62.19;99066.16;4320603;33;20098;-89
2022/12/26 06:37:05;;;;;;;34.67;16.27;;;;;;;10.72;nan;99071.16;4320242;33;20104;-88
2022/12/26 06:39:30;;;;;;;37.72;16.87;;;;;;;10.70;61.93;99067.75;4320347;33;20092;-88
2022/12/26 06:41:56;;;;;;;43.83;17.83;;;;;;;10.79;61.62;99075.16;4320180;33;20461;-88
2022/12/26 06:44:21;;;;;;;35.10;17.87;;;;;;;10.78;61.67;99062.09;4320255;33;20154;-88
2022/12/26 06:46:46;;;;;;;41.50;17.67;;;;;;;10.78;61.83;99062.09;4319126;33;20457;-89
2022/12/26 06:49:12;;;;;;;36.72;17.73;;;;;;;10.82;61.85;99061.00;4320127;33;20192;-88
2022/12/26 06:51:37;;;;;;;36.17;17.73;;;;;;;10.86;61.92;99059.91;4320158;33;20084;-89
2022/12/26 06:54:03;;;;;;;38.60;18.42;;;;;;;10.90;61.75;99053.53;4320215;33;20064;-89
2022/12/26 06:56:30;;;;;;;36.15;17.33;;;;;;;10.94;61.35;99049.81;4320109;33;20111;-88
2022/12/26 06:58:57;;;;;;;34.95;17.77;;;;;;;10.60;62.11;99053.31;4319011;33;20100;-89
2022/12/26 07:01:24;;;;;;;37.67;18.73;;;;;;;10.81;61.13;99049.56;4320133;33;20093;-89
2022/12/26 07:03:51;;;;;;;36.50;17.92;;;;;;;10.78;60.93;99055.03;4318940;33;20080;-88
2022/12/26 07:06:22;;;;;;;37.05;17.80;;;;;;;10.80;61.00;99061.06;4320410;33;20159;-88
2022/12/26 07:08:48;;;;;;;39.78;18.75;;;;;;;10.85;61.08;99060.81;4306883;33;20159;-88
2022/12/26 07:11:25;;;;;;;38.97;17.55;;;;;;;10.87;61.18;99069.50;4320066;33;20132;-88
2022/12/26 07:13:51;;;;;;;42.20;19.12;;;;;;;10.94;60.96;99083.22;4320083;33;20088;-88
2022/12/26 07:16:16;;;;;;;42.55;19.85;;;;;;;10.98;60.84;99084.78;4318099;33;20144;-88
2022/12/26 07:18:41;;;;;;;38.90;20.60;;;;;;;10.86;60.38;99083.62;4320189;33;20179;-87
2022/12/26 07:21:09;;;;;;;39.72;20.55;;;;;;;10.85;59.86;99084.53;4318607;33;20429;-88
2022/12/26 07:23:35;;;;;;;43.20;19.73;;;;;;;10.59;60.39;99086.72;4320047;33;20124;-88
2022/12/26 07:26:00;;;;;;;41.37;19.55;;;;;;;10.70;60.47;99088.81;4319986;33;20115;-88
2022/12/26 07:28:27;;;;;;;45.38;21.05;;;;;;;10.66;60.55;99087.25;4318667;33;20083;-88
2022/12/26 07:30:52;;;;;;;41.00;19.23;;;;;;;10.66;60.57;99089.03;4318740;33;20088;-87
2022/12/26 07:33:18;;;;;;;41.33;20.02;;;;;;;10.74;60.40;99087.72;4318676;33;20092;-87
2022/12/26 07:35:43;;;;;;;67.93;21.35;;;;;;;10.68;60.67;99090.69;4319697;33;20159;-88
2022/12/26 07:38:10;;;;;;;42.58;20.30;;;;;;;10.67;60.69;99098.66;4318664;33;20104;-88
2022/12/26 07:40:35;;;;;;;42.45;19.85;;;;;;;10.79;60.70;99101.50;4318465;33;20532;-88
2022/12/26 07:43:00;;;;;;;59.33;21.45;;;;;;;10.88;60.62;99100.22;4318510;33;20113;-88
2022/12/26 07:45:26;;;;;;;46.47;21.42;;;;;;;10.67;61.04;99096.03;4319663;33;20472;-88
2022/12/26 07:47:55;;;;;;;59.33;21.15;;;;;;;10.51;61.76;99090.66;4319610;33;20167;-87
2022/12/26 07:50:21;;;;;;;47.92;20.88;;;;;;;10.54;62.08;99090.50;4318352;33;20460;-88
2022/12/26 07:52:47;;;;;;;44.25;19.85;;;;;;;10.75;61.55;99097.31;4319521;33;20106;-88
2022/12/26 07:55:12;;;;;;;70.25;22.25;;;;;;;10.90;61.18;99108.03;4306134;33;20104;-88
2022/12/26 07:57:38;;;;;;;46.15;20.00;;;;;;;10.92;61.23;99103.53;4319371;33;20088;-88
2022/12/26 08:00:04;;;;;;;47.33;21.80;;;;;;;10.97;61.15;99106.78;4318228;33;20503;-88
2022/12/26 08:02:29;;;;;;;46.55;20.40;;;;;;;11.03;61.26;99103.84;4319451;33;20472;-88
2022/12/26 08:04:55;;;;;;;45.97;21.05;;;;;;;11.10;60.96;99088.56;4319322;33;20096;-88
2022/12/26 08:07:20;;;;;;;45.33;19.80;;;;;;;11.21;60.65;99099.41;4318130;33;20124;-89
2022/12/26 08:09:46;;;;;;;47.20;21.58;;;;;;;11.27;60.40;99098.22;4319343;33;20464;-88
2022/12/26 08:12:12;;;;;;;49.47;22.02;;;;;;;11.28;60.31;99097.28;4319194;33;20166;-88
2022/12/26 08:14:38;;;;;;;47.40;22.83;;;;;;;11.35;60.45;99101.31;4319262;33;20093;-88
2022/12/26 08:17:03;;;;;;;48.60;21.70;;;;;;;11.39;60.34;99103.69;4319043;33;20092;-88
2022/12/26 08:19:29;;;;;;;49.75;22.30;;;;;;;11.51;60.09;99106.63;4318237;33;20119;-89
2022/12/26 08:21:54;;;;;;;55.53;21.95;;;;;;;11.60;59.78;99101.69;4319299;33;20115;-88
2022/12/26 08:24:19;;;;;;;56.25;22.58;;;;;;;11.63;59.50;99113.91;4317969;33;20139;-88
2022/12/26 08:26:45;;;;;;;57.45;22.45;;;;;;;11.65;59.25;99109.37;4318974;33;20140;-88
2022/12/26 08:29:10;;;;;;;54.97;22.40;;;;;;;10.79;61.02;99119.94;4321098;33;20076;-89
2022/12/26 08:31:36;;;;;;;49.25;21.60;;;;;;;11.28;59.91;99116.63;4321153;33;20140;-89
2022/12/26 08:34:01;;;;;;;52.95;22.42;;;;;;;11.47;59.74;99113.84;4319882;33;20147;-88
2022/12/26 08:36:27;;;;;;;54.20;22.50;;;;;;;11.52;59.64;99119.72;4319964;33;20135;-88
2022/12/26 08:38:52;;;;;;;53.17;23.73;;;;;;;11.35;59.88;99114.50;4307751;33;20084;-89
2022/12/26 08:41:18;;;;;;;57.13;23.75;;;;;;;11.48;59.82;99117.34;4321089;33;20114;-88
2022/12/26 08:43:48;;;;;;;50.92;22.45;;;;;;;11.51;59.70;99120.69;4319871;33;20254;-88
2022/12/26 08:46:13;;;;;;;50.10;23.12;;;;;;;11.58;59.59;99129.12;4320083;33;20523;-88
2022/12/26 08:48:40;;;;;;;94.07;24.00;;;;;;;11.67;59.50;99117.22;4319892;33;20091;-88
2022/12/26 08:51:12;;;;;;;104.85;24.65;;;;;;;11.66;59.36;99120.78;4321041;33;20162;-88
2022/12/26 08:53:37;;;;;;;54.63;21.83;;;;;;;11.67;59.12;99123.34;4319794;33;20198;-88
2022/12/26 08:56:04;;;;;;;54.97;24.08;;;;;;;11.69;59.20;99132.03;4319672;33;20108;-88
2022/12/26 08:58:30;;;;;;;65.15;23.62;;;;;;;11.52;59.55;99132.94;4320938;33;20110;-88
2022/12/26 09:01:05;;;;;;;91.75;26.02;;;;;;;11.45;60.01;99136.81;4318257;33;85977;-88
2022/12/26 09:03:30;;;;;;;57.15;22.92;;;;;;;11.43;60.08;99130.75;4320089;33;20377;-88
2022/12/26 09:05:59;;;;;;;56.83;25.02;;;;;;;11.54;60.10;99128.41;4321192;33;20110;-88
2022/12/26 09:08:24;;;;;;;52.10;23.00;;;;;;;11.61;59.98;99129.81;4321213;33;20144;-88
2022/12/26 09:10:50;;;;;;;58.35;23.87;;;;;;;11.65;60.02;99130.50;4321002;33;20111;-88
2022/12/26 09:13:15;;;;;;;66.35;23.40;;;;;;;11.68;59.96;99129.47;4321049;33;20382;-88
2022/12/26 09:15:41;;;;;;;91.87;24.40;;;;;;;11.56;60.05;99133.63;4321055;33;20369;-88
2022/12/26 09:18:06;;;;;;;49.90;23.25;;;;;;;11.76;59.51;99141.34;4320730;33;20126;-88
2022/12/26 09:20:32;;;;;;;52.70;23.10;;;;;;;11.83;59.39;99135.72;4307738;33;20132;-88
2022/12/26 09:22:58;;;;;;;53.35;22.90;;;;;;;11.80;59.54;99144.62;4321113;33;20454;-88
2022/12/26 09:25:24;;;;;;;74.53;22.40;;;;;;;11.89;59.54;99143.31;4307665;33;20109;-88
2022/12/26 09:27:52;;;;;;;52.92;23.12;;;;;;;11.68;59.76;99140.88;4321062;33;20374;-88
2022/12/26 09:30:18;;;;;;;;;;;;;;;11.71;59.79;99139.87;4321304;33;20064;-88
2022/12/26 09:32:43;;;;;;;49.22;21.30;;;;;;;11.57;60.25;99137.94;4320949;33;19976;-88
2022/12/26 09:35:09;;;;;;;49.25;22.65;;;;;;;11.82;59.98;99145.44;4320922;33;20378;-88
2022/12/26 09:37:34;;;;;;;57.30;22.87;;;;;;;12.00;59.35;99140.97;4320832;33;20088;-88
2022/12/26 09:39:59;;;;;;;54.03;21.25;;;;;;;12.10;59.25;99142.16;4320405;33;20092;-88
2022/12/26 09:42:55;;;;;;;55.50;22.62;;;;;;;12.22;58.23;99139.78;4320890;33;20126;-87
2022/12/26 09:45:31;;;;;;;48.08;21.23;;;;;;;12.18;58.79;99134.66;4320982;33;20151;-88
2022/12/26 09:48:05;;;;;;;46.95;21.90;;;;;;;12.06;58.98;99137.13;4320965;33;20233;-88
2022/12/26 09:50:37;;;;;;;60.88;22.67;;;;;;;12.24;58.41;99136.09;4320876;33;20484;-88
2022/12/26 09:53:13;;;;;;;50.70;22.15;;;;;;;12.35;58.32;99128.44;4319791;33;20469;-89
2022/12/26 09:55:53;;;;;;;50.42;22.58;;;;;;;12.38;58.19;99128.28;4319531;33;20469;-89
2022/12/26 09:58:33;;;;;;;52.67;22.55;;;;;;;12.54;58.09;99127.41;4319357;33;20172;-89
2022/12/26 10:01:09;;;;;;;52.62;23.08;;;;;;;12.61;57.62;99130.53;4319484;33;20092;-88
2022/12/26 10:03:49;;;;;;;48.92;22.35;;;;;;;12.64;57.55;99133.84;4319375;33;20131;-88
2022/12/26 10:06:14;;;;;;;56.20;23.00;;;;;;;12.41;58.18;99134.31;4319327;33;20116;-88
2022/12/26 10:09:09;;;;;;;54.38;22.70;;;;;;;12.56;57.62;99138.72;4320281;33;20092;-87
2022/12/26 10:11:45;;;;;;;50.20;23.12;;;;;;;12.48;57.77;99133.88;4320344;33;20111;-89
2022/12/26 10:14:38;;;;;;;57.25;23.10;;;;;;;12.65;57.76;99132.94;4319283;33;20116;-88
2022/12/26 10:17:18;;;;;;;60.95;22.40;;;;;;;12.54;57.45;99140.63;4319127;33;20469;-89
2022/12/26 10:20:07;;;;;;;51.63;22.37;;;;;;;12.03;58.75;99139.94;4320598;33;20099;-89
2022/12/26 10:22:55;;;;;;;50.60;22.77;;;;;;;12.50;57.86;99125.88;4312296;33;20399;-88
2022/12/26 10:25:24;;;;;;;70.12;22.92;;;;;;;12.60;57.63;99132.31;4319187;33;20225;-88
2022/12/26 10:27:51;;;;;;;50.70;20.77;;;;;;;11.60;59.37;99133.38;4319267;33;20146;-88
2022/12/26 10:30:32;;;;;;;56.05;23.08;;;;;;;12.33;58.40;99116.25;4320440;33;20172;-88
2022/12/26 10:33:01;;;;;;;49.65;20.65;;;;;;;11.96;58.84;99110.38;4319147;33;20153;-89
2022/12/26 10:35:34;;;;;;;61.85;22.50;;;;;;;12.05;58.91;99101.94;4319187;33;20172;-88
2022/12/26 10:38:09;;;;;;;66.53;23.67;;;;;;;12.15;58.63;99095.22;4319078;33;20123;-89
2022/12/26 10:40:40;;;;;;;59.35;24.33;;;;;;;11.29;61.22;99097.22;4306933;33;20146;-88
2022/12/26 10:43:28;;;;;;;232.98;28.92;;;;;;;11.73;60.31;99096.63;4319160;33;20139;-88
2022/12/26 10:46:39;;;;;;;53.42;23.08;;;;;;;10.67;63.34;99107.41;4320276;33;20131;-88
2022/12/26 10:49:09;;;;;;;58.87;23.67;;;;;;;11.49;61.27;99104.09;4274933;33;20112;-89
2022/12/26 10:51:36;;;;;;;98.40;24.65;;;;;;;11.86;60.29;99093.31;4250157;33;20137;-88
2022/12/26 10:54:02;;;;;;;;;;;;;;;12.03;59.48;99095.03;4275082;33;20369;-89
2022/12/26 10:56:27;;;;;;;89.35;24.17;;;;;;;12.06;59.61;99092.25;4274663;33;19996;-88
2022/12/26 10:59:16;;;;;;;51.95;21.48;;;;;;;12.00;59.68;99083.72;4274633;33;20534;-89
2022/12/26 11:01:46;;;;;;;64.15;22.98;;;;;;;12.00;59.65;99073.16;4263026;33;20077;-88
2022/12/26 11:04:23;;;;;;;153.93;26.67;;;;;;;12.21;59.01;99070.25;4274876;33;20085;-84
2022/12/26 11:06:51;;;;;;;73.77;23.70;;;;;;;11.95;59.35;99071.72;4262477;33;20235;-85
2022/12/26 11:09:41;;;;;;;52.85;22.98;;;;;;;12.12;58.79;99063.69;4274524;33;20175;-84
2022/12/26 11:12:49;;;;;;;57.05;23.58;;;;;;;12.24;58.68;99063.94;4274559;33;20109;-81
2022/12/26 11:15:23;;;;;;;63.55;23.10;;;;;;;12.12;59.14;99058.41;4274611;33;20470;-81
2022/12/26 11:17:50;;;;;;;56.00;22.40;;;;;;;12.04;58.99;99065.91;4274258;33;20622;-82
2022/12/26 11:20:15;;;;;;;56.40;22.35;;;;;;;12.21;58.90;99064.97;4256283;33;20129;-80
2022/12/26 11:22:43;;;;;;;54.30;22.60;;;;;;;12.34;58.57;99052.78;4270369;33;20154;-80
2022/12/26 11:25:10;;;;;;;48.53;22.30;;;;;;;12.36;58.66;99050.88;4291693;33;20107;-82
2022/12/26 11:27:40;;;;;;;54.35;22.62;;;;;;;12.33;58.63;99043.13;4336433;33;20111;-80
2022/12/26 11:30:28;;;;;;;54.83;23.10;;;;;;;12.47;58.26;99052.91;4317666;33;20107;-83
2022/12/26 11:33:08;;;;;;;51.60;22.05;;;;;;;12.49;58.12;99047.53;4330006;33;21431;-87
2022/12/26 11:35:36;;;;;;;54.67;22.95;;;;;;;12.32;58.45;99049.38;4329827;33;20143;-83
2022/12/26 11:38:04;;;;;;;58.08;22.25;;;;;;;12.43;58.20;99054.00;4318825;33;20134;-84
2022/12/26 11:40:35;;;;;;;57.03;22.62;;;;;;;12.44;58.51;99046.94;4319715;33;20546;-82
2022/12/26 11:43:04;;;;;;;54.38;22.73;;;;;;;12.50;58.49;99041.31;4304165;33;20236;-84
2022/12/26 11:45:31;;;;;;;59.17;24.63;;;;;;;12.61;58.18;99036.22;4328946;33;20122;-83
2022/12/26 11:48:01;;;;;;;51.95;22.58;;;;;;;12.55;58.01;99034.78;4317935;33;20104;-85
2022/12/26 11:50:29;;;;;;;55.42;22.40;;;;;;;12.65;58.12;99039.53;4331409;33;20130;-83
2022/12/26 11:52:54;;;;;;;56.58;24.83;;;;;;;12.67;58.35;99045.59;4320094;33;20404;-84
2022/12/26 11:55:26;;;;;;;50.25;21.87;;;;;;;12.39;58.40;99045.41;4333151;33;20110;-83
2022/12/26 11:58:18;;;;;;;51.70;22.80;;;;;;;12.66;58.11;99042.09;4333250;33;20087;-87
2022/12/26 12:00:50;;;;;;;51.05;22.37;;;;;;;12.85;57.91;99035.72;4332132;33;20171;-83
2022/12/26 12:03:18;;;;;;;53.28;22.87;;;;;;;12.98;57.43;99039.34;4320777;33;20234;-85
2022/12/26 12:05:43;;;;;;;;;;;;;;;13.06;57.03;99037.06;4335586;33;20092;-83
2022/12/26 12:08:20;;;;;;;51.45;23.62;;;;;;;13.13;56.99;99038.41;4335288;33;19995;-83
2022/12/26 12:10:58;;;;;;;54.25;25.55;;;;;;;13.23;56.81;99030.75;4335362;33;20104;-83
2022/12/26 12:13:55;;;;;;;52.80;21.98;;;;;;;12.14;59.02;99031.91;4335126;33;20506;-83
2022/12/26 12:16:45;;;;;;;57.40;23.55;;;;;;;12.99;57.25;99020.72;4334979;33;20107;-81
2022/12/26 12:19:25;;;;;;;55.17;23.73;;;;;;;13.11;56.98;99019.09;4324363;33;20553;-83
2022/12/26 12:22:00;;;;;;;54.08;23.92;;;;;;;13.15;57.09;99027.72;4335336;33;20117;-82
2022/12/26 12:24:29;;;;;;;64.25;26.12;;;;;;;13.22;57.01;99026.41;4335074;33;20111;-83
2022/12/26 12:27:04;;;;;;;54.97;23.55;;;;;;;13.26;56.77;99025.25;4334979;33;20162;-83
2022/12/26 12:30:05;;;;;;;54.17;23.50;;;;;;;13.33;56.43;99023.97;4334053;33;20762;-83
2022/12/26 12:32:58;;;;;;;61.03;24.77;;;;;;;13.36;56.17;99018.47;4317992;33;20113;-83
2022/12/26 12:35:42;;;;;;;55.90;25.55;;;;;;;13.32;56.10;99018.78;4309192;33;20139;-83
2022/12/26 12:38:23;;;;;;;56.20;25.23;;;;;;;13.31;56.23;99025.87;4317846;33;20084;-83
2022/12/26 12:40:58;;;;;;;53.40;23.83;;;;;;;13.26;56.59;99033.19;4318004;33;20120;-83
2022/12/26 12:43:35;;;;;;;53.20;23.52;;;;;;;13.05;56.72;99030.06;4318011;33;20142;-84
2022/12/26 12:46:34;;;;;;;57.20;24.20;;;;;;;13.16;56.36;99022.34;4318240;33;20092;-82
2022/12/26 12:49:23;;;;;;;54.95;25.65;;;;;;;13.17;56.39;99017.87;4305972;33;20115;-83
2022/12/26 12:51:59;;;;;;;54.58;24.58;;;;;;;13.20;56.55;99017.72;4317612;33;20116;-83
2022/12/26 12:54:45;;;;;;;56.50;25.08;;;;;;;13.23;56.49;99008.72;4306258;33;20104;-83
2022/12/26 12:57:47;;;;;;;53.65;23.77;;;;;;;13.20;56.66;98990.41;4292578;33;20152;-83
2022/12/26 13:00:16;;;;;;;54.50;24.65;;;;;;;13.15;56.76;99002.13;4313728;33;20291;-83
2022/12/26 13:02:56;;;;;;;56.15;24.63;;;;;;;13.07;56.94;99001.72;4317610;33;20246;-83
2022/12/26 13:05:42;;;;;;;54.88;25.27;;;;;;;13.06;56.99;99002.69;4318060;33;20183;-83
2022/12/26 13:08:21;;;;;;;54.90;24.25;;;;;;;13.06;56.94;98999.22;4317985;33;20104;-83
2022/12/26 13:10:53;;;;;;;59.90;26.33;;;;;;;13.08;56.93;99002.59;4321078;33;20907;-82
2022/12/26 13:13:54;;;;;;;58.85;24.12;;;;;;;12.92;57.14;99002.66;4333438;33;20123;-83
2022/12/26 13:16:24;;;;;;;55.97;24.37;;;;;;;12.93;57.17;99007.88;4302694;33;20139;-83
2022/12/26 13:18:59;;;;;;;49.75;24.25;;;;;;;12.95;57.32;99000.69;4289669;33;20119;-83
2022/12/26 13:21:26;;;;;;;54.63;24.17;;;;;;;13.01;57.31;99003.91;4291217;33;20144;-83
2022/12/26 13:24:23;;;;;;;55.50;25.95;;;;;;;13.03;57.27;99007.31;4291253;33;20175;-84
2022/12/26 13:27:07;;;;;;;57.17;26.23;;;;;;;13.01;57.18;99011.84;4303078;33;20112;-83
2022/12/26 13:29:42;;;;;;;57.40;26.70;;;;;;;12.95;57.40;99010.44;4303320;33;20450;-82
2022/12/26 13:32:19;;;;;;;56.60;25.42;;;;;;;12.90;57.39;99021.28;4291175;33;20107;-83
2022/12/26 13:34:45;;;;;;;52.83;25.23;;;;;;;12.92;57.37;99008.84;4303066;33;20139;-83
2022/12/26 13:37:38;;;;;;;59.28;26.40;;;;;;;12.96;57.31;99018.28;4303340;33;20123;-83
2022/12/26 13:40:19;;;;;;;58.63;24.98;;;;;;;12.93;57.36;99021.09;4302892;33;20096;-83
2022/12/26 13:45:50;;;;;;;52.58;24.60;;;;;;;12.82;57.73;99020.03;4309523;33;20578;-83